TAF Text Data
IDs:
Format:
Raw Decoded Include METAR

Data at: 2121 UTC 26 May 2019

Region: TOP
KATL 261935Z 2620/2724 29012KT P6SM FEW070
  FM270200 29005KT P6SM FEW250
  FM271500 30009KT P6SM SCT050
  FM271900 27008KT P6SM SCT070


KBOS 261720Z 2618/2724 26010KT P6SM SCT045
  FM262300 29012G20KT P6SM SCT050
  FM270100 31008KT P6SM SCT050
  FM271000 34006KT P6SM FEW250
  FM271400 04007KT P6SM FEW040
  FM271800 07007KT P6SM FEW250


KBWI 262045Z 2621/2724 27008KT P6SM SCT050 BKN250
  FM270200 32008KT P6SM -TSRA BKN040CB BKN090
  FM270500 31004KT P6SM SCT050 BKN080
  FM271200 01007KT P6SM BKN060


KCLE 262104Z 2621/2724 36015KT 5SM -SHRA BR SCT010 OVC060
  TEMPO 2621/2623 2SM -TSRA BR BKN010CB OVC060
  FM262300 34008KT P6SM VCSH BKN030
  FM270200 34004KT P6SM BKN060
  FM270600 02005KT P6SM SCT250


KCLT 261959Z 2620/2724 26008G15KT P6SM FEW070 SCT250
  FM262300 26007KT P6SM FEW070 SCT250
  FM270200 32003KT P6SM SCT250
  FM271400 30007KT P6SM FEW250
  FM271700 29008G17KT P6SM FEW060


KCVG 262058Z 2621/2724 26008KT P6SM VCSH SCT040 BKN080
  FM270300 26005KT P6SM SCT090
  FM271000 32004KT 5SM BR BKN011
  FM271300 02004KT P6SM BKN015
  FM271500 16005KT P6SM BKN025
  FM271800 20007KT P6SM SCT035 BKN250


KDCA 262045Z 2621/2724 25007KT P6SM SCT050 BKN200
  FM270100 32007KT P6SM -TSRA BKN040CB
  FM270400 35005KT P6SM BKN050


KDEN 262103Z 2621/2724 08011G20KT P6SM FEW090 SCT120 BKN200
  TEMPO 2622/2623 VRB20G30KT TSRA BKN080CB
  FM262300 17015G25KT P6SM VCTS SCT090CB SCT150
  TEMPO 2623/2624 VRB20G30KT -TSRA BKN070CB
  FM270000 34015KT P6SM VCTS SCT080CB BKN120
  TEMPO 2700/2703 VRB20G30KT TSRA BKN060CB
  FM270400 04007KT P6SM VCSH SCT090 BKN140
  FM270600 28007KT P6SM SCT140 BKN200
  FM271400 24007KT P6SM FEW150 BKN220
  FM271900 14014KT P6SM VCTS SCT080CB BKN120
  TEMPO 2720/2724 VRB20G35KT TSRA BKN070CB


KDFW 262050Z 2621/2724 16015KT P6SM SCT040 BKN250
  FM271000 17014KT P6SM BKN025
  TEMPO 2711/2715 BKN015
  FM271600 17018G28KT P6SM SCT040


KDTW 262109Z 2621/2724 10007KT P6SM -SHRA SCT040 BKN060 OVC120
  FM262300 04005KT P6SM SCT045
  FM270300 07004KT P6SM SCT250


KEWR 262042Z 2621/2724 26014G19KT P6SM VCSH SCT070
  TEMPO 2621/2622 -TSRA SCT025 BKN040CB
  FM262300 29012KT P6SM SCT060 BKN120
  FM270200 32007KT P6SM SCT060 BKN150
  FM270500 36005KT P6SM SCT060 BKN150
  FM271300 01007KT P6SM SCT060 SCT250
  FM272000 34008KT P6SM SCT060 SCT250


KFLL 262059Z 2621/2724 08015KT P6SM SCT025
  FM270400 09010KT P6SM SCT025
  FM271400 10015KT P6SM SCT030


KIAD 262045Z 2621/2724 29007KT P6SM SCT050 BKN250
  FM270100 30005KT P6SM -TSRA BKN060CB BKN100
  FM270400 35004KT P6SM BKN050


KIAH 262040Z 2620/2724 15013G18KT P6SM SCT040
  FM270200 16006KT P6SM SCT040
  FM270900 18006KT P6SM BKN020
  FM271600 17010KT P6SM OVC035
  FM272200 16011KT P6SM BKN050


KJFK 262042Z 2621/2724 19012KT P6SM VCSH SCT080 SCT250
  TEMPO 2622/2623 -TSRA SCT025 BKN040CB
  FM262300 26012KT P6SM SCT060 BKN120
  FM270200 31009KT P6SM SCT060 BKN150
  FM270500 36006KT P6SM SCT060 BKN150
  FM271300 36008KT P6SM SCT060 SCT250
  FM271900 17008KT P6SM SCT060 SCT250


KLAS 262030Z 2620/2724 21018G28KT P6SM SCT080 BKN120
  FM270300 24014G24KT P6SM SCT060 BKN120
  FM270900 22010KT P6SM VCSH SCT060 BKN090
  FM271400 VRB05KT P6SM SCT070 SCT120


KLAX 262044Z 2621/2724 24012KT P6SM VCSH SCT025 BKN035
  FM262200 24014G22KT P6SM VCSH BKN025 BKN060
  FM270200 27015G25KT P6SM BKN060
  FM270600 28010KT P6SM SCT150
  FM271900 27015G25KT P6SM SKC


KLGA 262042Z 2621/2724 28013KT P6SM VCSH SCT090 BKN250
  TEMPO 2622/2623 -TSRA SCT025 BKN040CB
  FM262300 29012KT P6SM SCT060 BKN120
  FM270200 31008KT P6SM SCT060 BKN150
  FM270500 36006KT P6SM SCT060 BKN150
  FM271300 03008KT P6SM SCT060 SCT250


KMCO 262102Z 2621/2724 12009KT P6SM FEW060
  FM270200 VRB03KT P6SM SKC
  FM271400 VRB04KT P6SM FEW035


KMDW 262100Z 2621/2724 05009KT P6SM SCT040 SCT100
  FM271600 10008KT P6SM -SHRA SCT025 BKN040 BKN100
  FM271900 12009KT P6SM BKN040 BKN120
  PROB30 2721/2724 2SM TSRA OVC035CB


KMEM 262051Z 2621/2724 24010G16KT P6SM FEW050 SCT250
  FM270100 19004KT P6SM SKC
  FM271600 20011G18KT P6SM FEW040


KMIA 262059Z 2621/2724 07012G20KT P6SM SCT030
  FM270400 09010KT P6SM SCT025
  FM271300 10015KT P6SM SCT030


KMSP 262030Z 2620/2724 08005KT P6SM SCT250
  FM271100 08008KT P6SM VCSH OVC110
  FM271400 08012KT 6SM SHRA BR SCT012 OVC020
  FM271600 08012KT 4SM SHRA BR BKN008 OVC012
  FM271800 06012G24KT P6SM -SHRA OVC012


KORD 262100Z 2621/2724 05007KT P6SM SCT040 SCT100
  FM271600 10008KT P6SM -SHRA SCT025 BKN040 BKN100
  FM271900 12009KT P6SM BKN040 BKN120
  PROB30 2720/2724 2SM TSRA OVC035CB


KPDX 262055Z 2621/2718 33007KT P6SM VCSH SCT035 BKN120
  FM270300 VRB05KT P6SM SCT060
  FM271300 VRB02KT P6SM BKN020


KPHL 262004Z 2620/2724 24010KT P6SM VCSH SCT050 BKN200
  TEMPO 2622/2624 4SM -TSRA BKN050CB
  FM270000 30008KT P6SM VCTS BKN050CB
  FM270200 35004KT P6SM SCT070 BKN100
  FM271100 01006KT P6SM SCT200


KPHX 262027Z 2620/2724 21018G28KT P6SM FEW250
  FM270300 26020G32KT P6SM FEW100 BKN180
  FM270800 27014KT P6SM SCT100
  FM271700 23012G20KT P6SM SKC


KPIT 262108Z 2621/2724 26008KT P6SM SCT030 BKN080
  FM262300 29008KT P6SM VCSH BKN040
  FM270200 33006KT P6SM BKN050
  FM271300 33004KT P6SM SCT050


KSAN 262049Z 2621/2724 22010KT P6SM VCSH SCT025 BKN035
  FM270500 27012G20KT P6SM -SHRA BKN025 BKN035
  FM271200 28010KT P6SM SCT025 BKN035
  FM272100 29012G20KT P6SM SCT025 SCT050


KSEA 262108Z 2621/2724 35008KT P6SM VCSH SCT020 BKN070 BKN130
  FM270500 VRB03KT P6SM SCT120 BKN200
  FM271100 VRB03KT P6SM SCT010
  FM271800 27007KT P6SM SCT030 BKN250


KSFO 262100Z 2621/2724 28017G24KT P6SM VCSH FEW025 SCT035 BKN050
  FM262200 27014G21KT P6SM -SHRA VCTS SCT040 BKN050CB
  FM270400 26009KT P6SM FEW025 SCT040
  FM270900 25005KT P6SM SCT015 BKN020 OVC025
  FM271700 26006KT P6SM FEW020 SCT030
  FM272000 27011KT P6SM FEW025 FEW035


KSLC 262045Z 2621/2724 18018G26KT P6SM SCT080
  FM270300 16010KT P6SM SCT070 BKN100
  FM271400 15009KT P6SM -SHRA SCT030 BKN050


KSTL 262014Z 2620/2724 26006KT P6SM FEW015 BKN100
  FM270300 VRB03KT P6SM BKN250
  FM271000 VRB03KT P6SM VCSH BKN150
  FM271800 20010G18KT P6SM BKN150


KTPA 262103Z 2621/2724 28006KT P6SM SCT060
  FM270200 10005KT P6SM SKC
  FM271500 13006KT P6SM FEW060
  FM271800 25008KT P6SM FEW060